createdAt,value
2023-03-06T00:00:31.761Z,22.07
2023-03-06T00:03:00.611Z,21.90
2023-03-06T00:05:29.130Z,20.57
2023-03-06T00:07:57.530Z,21.70
2023-03-06T00:10:27.360Z,21.90
2023-03-06T00:12:56.430Z,22.20
2023-03-06T00:15:25.338Z,21.53
2023-03-06T00:17:55.379Z,20.43
2023-03-06T00:20:23.902Z,18.67
2023-03-06T00:22:52.814Z,19.70
2023-03-06T00:25:22.508Z,19.33
2023-03-06T00:27:52.087Z,19.83
2023-03-06T00:30:22.117Z,22.43
2023-03-06T00:32:50.832Z,21.60
2023-03-06T00:35:20.658Z,21.17
2023-03-06T00:37:49.096Z,23.70
2023-03-06T00:40:18.576Z,23.57
2023-03-06T00:42:47.132Z,23.47
2023-03-06T00:45:15.607Z,24.67
2023-03-06T00:47:44.141Z,26.27
2023-03-06T00:50:13.053Z,26.10
2023-03-06T00:52:43.060Z,26.10
2023-03-06T00:55:11.793Z,27.10
2023-03-06T00:57:40.190Z,27.93
2023-03-06T01:00:09.517Z,27.30
2023-03-06T01:02:37.979Z,27.37
2023-03-06T01:05:06.848Z,26.07
2023-03-06T01:07:36.955Z,25.97
2023-03-06T01:10:07.934Z,27.47
2023-03-06T01:12:36.603Z,26.07
2023-03-06T01:15:05.422Z,25.20
2023-03-06T01:17:34.231Z,27.07
2023-03-06T01:20:02.646Z,24.97
2023-03-06T01:22:31.040Z,25.43
2023-03-06T01:24:59.495Z,25.33
2023-03-06T01:27:30.305Z,25.50
2023-03-06T01:29:58.766Z,26.10
2023-03-06T01:32:27.299Z,26.70
2023-03-06T01:34:55.936Z,26.67
2023-03-06T01:37:24.338Z,25.77
2023-03-06T01:39:52.733Z,27.33
2023-03-06T01:42:21.144Z,27.13
2023-03-06T01:45:05.198Z,26.53
2023-03-06T01:47:33.643Z,26.33
2023-03-06T01:50:03.850Z,26.73
2023-03-06T01:52:33.466Z,25.97
2023-03-06T01:55:04.694Z,26.13
2023-03-06T01:57:34.654Z,27.23
2023-03-06T02:00:06.922Z,26.43
2023-03-06T02:02:35.542Z,26.50
2023-03-06T02:05:05.277Z,28.87
2023-03-06T02:07:33.892Z,27.50
2023-03-06T02:10:02.349Z,26.83
2023-03-06T02:12:30.782Z,27.60
2023-03-06T02:14:59.205Z,26.83
2023-03-06T02:17:29.582Z,27.20
2023-03-06T02:20:01.834Z,28.10
2023-03-06T02:22:35.147Z,27.70
2023-03-06T02:25:06.383Z,26.20
2023-03-06T02:27:36.444Z,26.70
2023-03-06T02:30:07.372Z,28.63
2023-03-06T02:32:35.803Z,27.20
2023-03-06T02:35:04.635Z,27.20
2023-03-06T02:37:33.049Z,26.20
2023-03-06T02:40:08.224Z,26.90
2023-03-06T02:42:38.234Z,25.90
2023-03-06T02:45:09.423Z,26.30
2023-03-06T02:47:37.780Z,26.67
2023-03-06T02:50:06.466Z,26.23
2023-03-06T02:52:34.882Z,25.90
2023-03-06T02:55:03.268Z,26.70
2023-03-06T02:57:31.675Z,26.10
2023-03-06T03:00:01.478Z,27.60
2023-03-06T03:02:29.891Z,25.67
2023-03-06T03:04:58.298Z,25.73
2023-03-06T03:07:26.750Z,26.20
2023-03-06T03:09:55.149Z,24.77
2023-03-06T03:12:23.534Z,26.33
2023-03-06T03:14:51.996Z,24.70
2023-03-06T03:17:21.759Z,24.83
2023-03-06T03:19:50.176Z,24.73
2023-03-06T03:22:18.895Z,23.63
2023-03-06T03:24:47.574Z,25.03
2023-03-06T03:27:16.471Z,23.97
2023-03-06T03:29:45.332Z,26.03
2023-03-06T03:32:13.784Z,24.33
2023-03-06T03:34:43.612Z,24.53
2023-03-06T03:37:12.040Z,24.30
2023-03-06T03:39:40.480Z,22.97
2023-03-06T03:42:09.037Z,23.37
2023-03-06T03:44:37.533Z,22.53
2023-03-06T03:47:06.136Z,22.13
2023-03-06T03:49:34.540Z,21.40
2023-03-06T03:52:04.348Z,21.87
2023-03-06T03:54:32.811Z,20.67
2023-03-06T03:57:01.216Z,20.97
2023-03-06T03:59:29.661Z,21.20
2023-03-06T04:01:58.294Z,21.30
2023-03-06T04:04:26.828Z,19.50
2023-03-06T04:06:55.274Z,20.93
2023-03-06T04:09:25.222Z,20.53
2023-03-06T04:11:53.679Z,20.53
2023-03-06T04:14:22.077Z,20.87
2023-03-06T04:16:50.500Z,20.77
2023-03-06T04:19:18.900Z,19.60
2023-03-06T04:21:47.320Z,20.13
2023-03-06T04:24:15.695Z,19.03
2023-03-06T04:26:45.554Z,19.63
2023-03-06T04:29:14.054Z,19.77
2023-03-06T04:31:42.542Z,19.67
2023-03-06T04:34:10.956Z,18.77
2023-03-06T04:36:39.665Z,18.70
2023-03-06T04:39:08.134Z,19.33
2023-03-06T04:41:36.668Z,20.53
2023-03-06T04:44:06.637Z,20.40
2023-03-06T04:46:35.155Z,20.70
2023-03-06T04:49:03.850Z,19.57
2023-03-06T04:51:32.255Z,20.90
2023-03-06T04:54:00.674Z,21.10
2023-03-06T04:56:29.840Z,20.27
2023-03-06T04:58:58.266Z,19.70
2023-03-06T05:01:28.171Z,20.80
2023-03-06T05:03:56.564Z,19.93
2023-03-06T05:06:24.994Z,21.03
2023-03-06T05:08:53.432Z,20.47
2023-03-06T05:11:21.824Z,20.00
2023-03-06T05:13:50.525Z,21.20
2023-03-06T05:16:19.346Z,19.97
2023-03-06T05:18:50.657Z,20.33
2023-03-06T05:21:19.265Z,20.50
2023-03-06T05:23:48.356Z,20.57
2023-03-06T05:26:16.928Z,21.60
2023-03-06T05:28:45.528Z,21.13
2023-03-06T05:31:13.928Z,21.73
2023-03-06T05:33:42.297Z,22.70
2023-03-06T05:36:12.382Z,21.33
2023-03-06T05:38:40.779Z,21.43
2023-03-06T05:41:12.743Z,21.23
2023-03-06T05:43:41.151Z,21.57
2023-03-06T05:46:09.951Z,21.00
2023-03-06T05:48:38.647Z,21.83
2023-03-06T05:51:07.243Z,20.67
2023-03-06T05:53:37.012Z,20.40
2023-03-06T05:56:06.528Z,20.23
2023-03-06T05:58:35.234Z,20.73
2023-03-06T06:01:09.995Z,20.77
2023-03-06T06:03:38.593Z,21.17
2023-03-06T06:06:07.477Z,20.83
2023-03-06T06:08:37.326Z,21.33
2023-03-06T06:11:06.613Z,19.83
2023-03-06T06:13:35.007Z,22.03
2023-03-06T06:16:08.070Z,21.40
2023-03-06T06:18:37.317Z,23.03
2023-03-06T06:21:07.721Z,24.20
2023-03-06T06:23:37.719Z,22.97
2023-03-06T06:26:07.707Z,23.00
2023-03-06T06:28:36.343Z,23.73
2023-03-06T06:31:09.141Z,24.33
2023-03-06T06:33:37.582Z,22.87
2023-03-06T06:36:06.268Z,24.17
2023-03-06T06:38:34.735Z,24.80
2023-03-06T06:41:35.576Z,25.10
2023-03-06T06:43:55.487Z,25.93
2023-03-06T06:47:09.587Z,25.93
2023-03-06T06:49:13.521Z,23.27
2023-03-06T06:51:42.376Z,22.57
2023-03-06T06:54:12.036Z,23.33
2023-03-06T06:56:41.829Z,23.00
2023-03-06T06:59:16.403Z,23.47
2023-03-06T07:01:45.448Z,23.67
2023-03-06T07:04:14.792Z,22.50
2023-03-06T07:06:43.404Z,22.43
2023-03-06T07:09:12.108Z,22.43
2023-03-06T07:11:42.216Z,25.40
2023-03-06T07:14:10.634Z,25.87
2023-03-06T07:16:39.052Z,26.77
2023-03-06T07:19:07.490Z,23.40
2023-03-06T07:21:35.998Z,23.57
2023-03-06T07:24:04.760Z,23.80
2023-03-06T07:26:34.873Z,25.37
2023-03-06T07:29:05.811Z,22.47
2023-03-06T07:31:34.378Z,24.13
2023-03-06T07:34:04.924Z,23.60
2023-03-06T07:36:33.952Z,24.40
2023-03-06T07:39:02.710Z,17.27
2023-03-06T07:41:31.181Z,17.43
2023-03-06T07:43:59.852Z,19.30
2023-03-06T07:46:29.743Z,20.90
2023-03-06T07:48:58.286Z,14.57
2023-03-06T07:51:26.757Z,17.07
2023-03-06T07:53:55.131Z,19.73
2023-03-06T07:56:23.515Z,19.47
2023-03-06T07:58:51.954Z,20.60
2023-03-06T08:01:21.301Z,20.37
2023-03-06T08:03:51.119Z,17.50
2023-03-06T08:06:20.554Z,19.50
2023-03-06T08:08:49.424Z,19.33
2023-03-06T08:11:19.116Z,21.47
2023-03-06T08:13:48.834Z,19.40
2023-03-06T08:16:18.372Z,18.70
2023-03-06T08:18:46.822Z,16.17
2023-03-06T08:21:17.472Z,15.93
2023-03-06T08:23:46.478Z,17.07
2023-03-06T08:26:16.712Z,18.53
2023-03-06T08:28:45.392Z,14.27
2023-03-06T08:31:14.731Z,15.63
2023-03-06T08:33:43.182Z,16.97
2023-03-06T08:36:11.685Z,17.20
2023-03-06T08:38:41.460Z,13.77
2023-03-06T08:41:09.877Z,14.63
2023-03-06T08:43:38.469Z,17.07
2023-03-06T08:46:06.944Z,16.27
2023-03-06T08:48:35.402Z,14.37
2023-03-06T08:51:03.893Z,16.87
2023-03-06T08:53:42.735Z,18.97
2023-03-06T08:56:18.385Z,17.90
2023-03-06T08:58:46.837Z,17.13
2023-03-06T09:01:16.373Z,17.83
2023-03-06T09:03:44.834Z,18.53
2023-03-06T09:06:13.259Z,19.50
2023-03-06T09:08:43.221Z,19.67
2023-03-06T09:11:11.811Z,17.77
2023-03-06T09:13:41.656Z,20.27
2023-03-06T09:16:10.679Z,23.07
2023-03-06T09:18:39.462Z,21.00
2023-03-06T09:21:09.213Z,19.60
2023-03-06T09:23:39.478Z,18.67
2023-03-06T09:26:08.475Z,18.60
2023-03-06T09:28:38.890Z,18.13
2023-03-06T09:31:11.010Z,24.67
2023-03-06T09:33:39.648Z,23.13
2023-03-06T09:36:08.732Z,20.07
2023-03-06T09:38:37.149Z,17.97
2023-03-06T09:43:37.233Z,22.97
2023-03-06T09:46:15.374Z,25.73
2023-03-06T09:48:49.019Z,22.50
2023-03-06T09:51:18.290Z,21.37
2023-03-06T09:53:58.492Z,26.93
2023-03-06T09:56:31.176Z,25.10
2023-03-06T09:59:02.550Z,22.90
2023-03-06T10:01:34.954Z,21.90
2023-03-06T10:04:07.358Z,29.37
2023-03-06T10:06:38.945Z,26.00
2023-03-06T10:09:09.285Z,23.50
2023-03-06T10:11:41.066Z,25.40
2023-03-06T10:14:14.309Z,31.93
2023-03-06T10:16:44.163Z,25.27
2023-03-06T10:19:14.431Z,24.60
2023-03-06T10:21:47.670Z,29.67
2023-03-06T10:24:21.932Z,30.40
2023-03-06T10:26:52.063Z,24.97
2023-03-06T10:29:56.393Z,24.10
2023-03-06T10:32:46.155Z,31.63
2023-03-06T10:35:19.810Z,28.20
2023-03-06T10:37:48.538Z,25.70
2023-03-06T10:40:18.655Z,32.50
2023-03-06T10:42:47.254Z,31.03
2023-03-06T10:45:16.523Z,27.63
2023-03-06T10:47:46.694Z,24.87
2023-03-06T10:50:22.430Z,34.63
2023-03-06T10:52:59.970Z,32.07
2023-03-06T10:55:30.410Z,27.43
2023-03-06T10:57:58.939Z,34.03
2023-03-06T11:00:29.264Z,35.47
2023-03-06T11:03:16.315Z,28.63
2023-03-06T11:06:04.315Z,27.10
2023-03-06T11:08:33.046Z,36.73
2023-03-06T11:11:02.438Z,31.63
2023-03-06T11:13:31.787Z,28.07
2023-03-06T11:16:02.406Z,35.73
2023-03-06T11:18:35.039Z,33.87
2023-03-06T11:21:07.288Z,30.67
2023-03-06T11:23:40.082Z,26.43
2023-03-06T11:26:20.713Z,38.57
2023-03-06T11:28:50.480Z,33.13
2023-03-06T11:31:20.336Z,29.37
2023-03-06T11:33:51.661Z,38.37
2023-03-06T11:36:28.170Z,36.70
2023-03-06T11:38:56.857Z,31.50
2023-03-06T11:41:31.519Z,36.60
2023-03-06T11:44:02.800Z,37.77
2023-03-06T11:46:35.047Z,32.50
2023-03-06T11:49:06.958Z,30.10
2023-03-06T11:51:39.628Z,39.47
2023-03-06T11:54:08.057Z,37.90
2023-03-06T11:56:42.904Z,32.10
2023-03-06T11:59:20.791Z,36.63
2023-03-06T12:01:51.913Z,38.33
2023-03-06T12:04:32.265Z,34.87
2023-03-06T12:07:07.540Z,32.10
2023-03-06T12:09:41.430Z,43.17
2023-03-06T12:12:20.306Z,35.90
2023-03-06T12:14:57.368Z,33.63
2023-03-06T12:17:31.724Z,37.30
2023-03-06T12:20:12.298Z,43.37
2023-03-06T12:22:57.515Z,34.30
2023-03-06T12:25:34.857Z,31.60
2023-03-06T12:28:18.110Z,40.50
2023-03-06T12:30:58.950Z,36.90
2023-03-06T12:33:30.768Z,32.77
2023-03-06T12:36:02.300Z,34.57
2023-03-06T12:38:51.644Z,41.17
2023-03-06T12:41:24.144Z,34.70
2023-03-06T12:44:07.350Z,31.23
2023-03-06T12:46:37.761Z,35.33
2023-03-06T12:49:08.064Z,35.93
2023-03-06T12:51:36.618Z,32.97
2023-03-06T12:54:06.603Z,31.60
2023-03-06T12:56:35.378Z,43.03
2023-03-06T12:59:03.960Z,34.90
2023-03-06T13:01:56.469Z,32.17
2023-03-06T13:04:33.395Z,39.67
2023-03-06T13:07:08.968Z,47.67
2023-03-06T13:09:41.992Z,41.53
2023-03-06T13:12:16.407Z,32.43
2023-03-06T13:14:55.255Z,33.67
2023-03-06T13:17:28.320Z,38.97
2023-03-06T13:20:21.263Z,38.60
2023-03-06T13:22:49.903Z,32.67
2023-03-06T13:25:34.206Z,38.73
2023-03-06T13:28:04.979Z,35.93
2023-03-06T13:30:46.830Z,30.17
2023-03-06T13:33:48.685Z,36.13
2023-03-06T13:36:24.979Z,33.03
2023-03-06T13:38:58.395Z,29.07
2023-03-06T13:41:50.605Z,36.17
2023-03-06T13:44:50.892Z,35.07
2023-03-06T13:47:32.289Z,31.83
2023-03-06T13:50:00.955Z,37.53
2023-03-06T13:52:36.852Z,33.47
2023-03-06T13:55:10.178Z,32.00
2023-03-06T13:57:43.515Z,38.47
2023-03-06T14:00:29.969Z,33.87
2023-03-06T14:03:24.022Z,34.00
2023-03-06T14:05:53.628Z,33.97
2023-03-06T14:08:23.647Z,31.60
2023-03-06T14:11:01.358Z,32.27
2023-03-06T14:13:45.262Z,38.53
2023-03-06T14:16:19.802Z,32.03
2023-03-06T14:18:50.772Z,34.20
2023-03-06T14:21:26.769Z,39.43
2023-03-06T14:24:00.667Z,32.90
2023-03-06T14:26:30.628Z,33.23
2023-03-06T14:28:59.869Z,43.20
2023-03-06T14:31:30.362Z,35.37
2023-03-06T14:34:01.059Z,31.70
2023-03-06T14:36:32.528Z,39.30
2023-03-06T14:39:04.273Z,39.27
2023-03-06T14:41:34.137Z,33.13
2023-03-06T14:44:17.789Z,31.77
2023-03-06T14:46:46.721Z,36.97
2023-03-06T14:49:17.184Z,32.00
2023-03-06T14:51:47.016Z,28.40
2023-03-06T14:54:18.293Z,34.73
2023-03-06T14:56:48.495Z,34.17
2023-03-06T14:59:19.483Z,29.73
2023-03-06T15:01:50.438Z,31.43
2023-03-06T15:04:23.769Z,35.30
2023-03-06T15:06:52.627Z,32.27
2023-03-06T15:09:24.372Z,27.97
2023-03-06T15:11:53.803Z,37.97
2023-03-06T15:14:23.770Z,37.17
2023-03-06T15:16:52.354Z,31.27
2023-03-06T15:19:22.723Z,32.27
2023-03-06T15:21:52.285Z,38.67
2023-03-06T15:24:35.120Z,32.53
2023-03-06T15:27:04.436Z,29.73
2023-03-06T15:29:33.231Z,38.80
2023-03-06T15:32:29.623Z,37.87
2023-03-06T15:35:12.881Z,31.03
2023-03-06T15:37:42.676Z,35.17
2023-03-06T15:40:19.094Z,36.23
2023-03-06T15:42:49.979Z,32.10
2023-03-06T15:45:19.953Z,33.83
2023-03-06T15:47:49.076Z,38.47
2023-03-06T15:50:18.490Z,33.93
2023-03-06T15:52:48.908Z,29.90
2023-03-06T15:55:18.410Z,34.00
2023-03-06T15:57:49.988Z,34.53
2023-03-06T16:00:27.783Z,29.90
2023-03-06T16:02:56.718Z,32.33
2023-03-06T16:05:25.392Z,35.13
2023-03-06T16:07:55.155Z,30.23
2023-03-06T16:10:24.380Z,29.37
2023-03-06T16:12:54.036Z,37.57
2023-03-06T16:15:23.381Z,33.13
2023-03-06T16:17:52.078Z,29.67
2023-03-06T16:20:21.588Z,30.47
2023-03-06T16:22:50.772Z,33.47
2023-03-06T16:25:22.043Z,29.60
2023-03-06T16:27:55.424Z,29.43
2023-03-06T16:30:24.988Z,30.67
2023-03-06T16:32:53.561Z,29.43
2023-03-06T16:35:22.016Z,27.67
2023-03-06T16:37:50.656Z,28.53
2023-03-06T16:40:22.197Z,31.13
2023-03-06T16:42:51.195Z,28.20
2023-03-06T16:45:21.130Z,26.63
2023-03-06T16:47:49.983Z,30.03
2023-03-06T16:50:22.934Z,30.37
2023-03-06T16:52:51.431Z,26.57
2023-03-06T16:55:21.506Z,29.53
2023-03-06T16:57:50.005Z,33.00
2023-03-06T17:00:19.687Z,27.27
2023-03-06T17:02:49.880Z,26.20
2023-03-06T17:05:18.396Z,27.87
2023-03-06T17:07:46.833Z,27.60
2023-03-06T17:10:16.684Z,25.30
2023-03-06T17:12:46.633Z,26.80
2023-03-06T17:15:15.074Z,28.00
2023-03-06T17:17:43.483Z,26.30
2023-03-06T17:20:12.717Z,27.90
2023-03-06T17:22:41.628Z,27.30
2023-03-06T17:25:10.777Z,27.87
2023-03-06T17:27:39.537Z,25.70
2023-03-06T17:30:10.239Z,27.07
2023-03-06T17:32:40.873Z,26.43
2023-03-06T17:35:10.147Z,25.13
2023-03-06T17:37:38.649Z,26.97
2023-03-06T17:40:09.449Z,30.17
2023-03-06T17:42:37.955Z,32.33
2023-03-06T17:45:09.204Z,32.40
2023-03-06T17:47:39.143Z,29.93
2023-03-06T17:50:07.779Z,27.60
2023-03-06T17:52:37.389Z,26.30
2023-03-06T17:55:06.050Z,23.87
2023-03-06T17:57:34.462Z,21.80
2023-03-06T18:00:02.860Z,19.83
2023-03-06T18:02:31.261Z,17.43
2023-03-06T18:05:01.109Z,17.00
2023-03-06T18:07:29.548Z,16.63
2023-03-06T18:09:58.047Z,15.93
2023-03-06T18:12:26.520Z,15.27
2023-03-06T18:14:55.027Z,14.43
2023-03-06T18:17:23.639Z,13.53
2023-03-06T18:19:52.943Z,13.00
2023-03-06T18:22:22.706Z,12.33
2023-03-06T18:24:51.502Z,11.60
2023-03-06T18:27:20.800Z,11.60
2023-03-06T18:29:49.604Z,11.37
2023-03-06T18:32:18.028Z,10.80
2023-03-06T18:34:46.520Z,10.27
2023-03-06T18:37:14.928Z,9.80
2023-03-06T18:39:44.782Z,10.03
2023-03-06T18:42:13.170Z,9.63
2023-03-06T18:44:41.668Z,10.53
2023-03-06T18:47:10.147Z,10.00
2023-03-06T18:49:40.580Z,10.17
2023-03-06T18:52:09.823Z,9.83
2023-03-06T18:54:38.274Z,9.67
2023-03-06T18:57:08.144Z,10.17
2023-03-06T18:59:36.566Z,9.10
2023-03-06T19:02:05.152Z,8.93
2023-03-06T19:04:33.576Z,9.17
2023-03-06T19:07:02.037Z,9.10
2023-03-06T19:09:30.498Z,9.17
2023-03-06T19:11:59.638Z,9.13
2023-03-06T19:14:30.636Z,9.47
2023-03-06T19:16:59.024Z,9.17
2023-03-06T19:19:29.336Z,8.93
2023-03-06T19:21:59.527Z,8.90
2023-03-06T19:24:27.987Z,9.13
2023-03-06T19:26:56.533Z,8.83
2023-03-06T19:29:25.009Z,8.33
2023-03-06T19:31:57.251Z,9.07
2023-03-06T19:34:25.764Z,9.70
2023-03-06T19:36:54.147Z,9.10
2023-03-06T19:39:22.546Z,9.47
2023-03-06T19:41:50.965Z,9.20
2023-03-06T19:44:19.341Z,9.30
2023-03-06T19:46:47.688Z,9.73
2023-03-06T19:49:18.260Z,9.40
2023-03-06T19:51:46.749Z,9.70
2023-03-06T19:54:15.370Z,9.73
2023-03-06T19:56:43.820Z,9.13
2023-03-06T19:59:12.239Z,8.97
2023-03-06T20:01:40.695Z,8.80
2023-03-06T20:04:09.181Z,8.83
2023-03-06T20:06:39.139Z,9.43
2023-03-06T20:09:08.900Z,9.10
2023-03-06T20:11:37.308Z,8.67
2023-03-06T20:14:06.324Z,8.87
2023-03-06T20:16:35.008Z,9.07
2023-03-06T20:19:03.490Z,9.87
2023-03-06T20:21:32.975Z,9.83
2023-03-06T20:24:02.843Z,9.97
2023-03-06T20:26:34.131Z,10.20
2023-03-06T20:29:02.623Z,9.73
2023-03-06T20:31:31.895Z,9.77
2023-03-06T20:34:00.739Z,10.27
2023-03-06T20:36:30.130Z,9.57
2023-03-06T20:39:00.571Z,9.67
2023-03-06T20:41:31.381Z,9.07
2023-03-06T20:43:59.972Z,8.90
2023-03-06T20:46:28.457Z,8.67
2023-03-06T20:48:58.187Z,9.27
2023-03-06T20:51:28.557Z,8.20
2023-03-06T20:53:57.776Z,8.27
2023-03-06T20:56:27.036Z,9.27
2023-03-06T20:58:57.149Z,8.37
2023-03-06T21:01:26.254Z,8.30
2023-03-06T21:03:55.204Z,9.23
2023-03-06T21:06:23.601Z,8.23
2023-03-06T21:08:51.992Z,7.77
2023-03-06T21:11:20.909Z,8.40
2023-03-06T21:13:49.491Z,7.50
2023-03-06T21:16:20.823Z,8.67
2023-03-06T21:18:49.484Z,8.23
2023-03-06T21:21:18.559Z,8.47
2023-03-06T21:23:47.248Z,7.90
2023-03-06T21:26:16.065Z,7.00
2023-03-06T21:28:44.578Z,7.83
2023-03-06T21:31:13.334Z,7.70
2023-03-06T21:33:43.711Z,8.17
2023-03-06T21:36:12.319Z,8.50
2023-03-06T21:38:40.977Z,7.90
2023-03-06T21:41:10.470Z,9.37
2023-03-06T21:43:38.847Z,9.90
2023-03-06T21:46:07.360Z,10.23
2023-03-06T21:48:35.909Z,9.07
2023-03-06T21:51:09.683Z,9.87
2023-03-06T21:53:38.526Z,9.63
2023-03-06T21:56:07.228Z,9.53
2023-03-06T21:58:35.616Z,10.40
2023-03-06T22:01:04.122Z,12.70
2023-03-06T22:03:32.542Z,13.23
2023-03-06T22:06:10.138Z,12.53
2023-03-06T22:08:38.513Z,13.30
2023-03-06T22:11:07.682Z,12.37
2023-03-06T22:13:36.151Z,12.57
2023-03-06T22:16:04.797Z,12.57
2023-03-06T22:18:33.239Z,13.10
2023-03-06T22:21:01.829Z,12.63
2023-03-06T22:23:31.593Z,12.57
2023-03-06T22:26:02.939Z,12.97
2023-03-06T22:28:31.621Z,12.90
2023-03-06T22:31:04.704Z,13.20
2023-03-06T22:33:33.076Z,13.30
2023-03-06T22:36:06.436Z,12.67
2023-03-06T22:38:36.870Z,12.37
2023-03-06T22:41:05.687Z,12.67
2023-03-06T22:43:34.181Z,13.43
2023-03-06T22:46:03.444Z,12.90
2023-03-06T22:48:31.919Z,13.63
2023-03-06T22:51:03.575Z,13.97
2023-03-06T22:53:32.098Z,13.70
2023-03-06T22:56:01.956Z,14.70
2023-03-06T22:58:34.359Z,13.80
2023-03-06T23:01:05.680Z,14.83
2023-03-06T23:03:34.108Z,14.97
2023-03-06T23:06:02.560Z,14.67
2023-03-06T23:08:30.938Z,14.30
2023-03-06T23:10:59.323Z,14.97
2023-03-06T23:13:29.153Z,15.23
2023-03-06T23:15:57.610Z,15.03
2023-03-06T23:18:25.996Z,16.13
2023-03-06T23:20:54.602Z,15.97
2023-03-06T23:23:23.248Z,14.90
2023-03-06T23:25:51.838Z,16.00
2023-03-06T23:28:20.646Z,16.83
2023-03-06T23:30:50.442Z,14.93
2023-03-06T23:33:18.850Z,15.77
2023-03-06T23:35:47.355Z,16.83
2023-03-06T23:38:16.070Z,16.27
2023-03-06T23:40:44.522Z,16.40
2023-03-06T23:43:13.140Z,15.77
2023-03-06T23:45:41.537Z,16.00
2023-03-06T23:48:12.663Z,15.73
2023-03-06T23:50:41.368Z,16.20
2023-03-06T23:53:09.756Z,16.13
2023-03-06T23:55:38.138Z,18.60
2023-03-06T23:58:06.527Z,18.47
